createdAt,value
2023-03-22T00:00:37.262Z,6.33
2023-03-22T00:03:10.304Z,6.97
2023-03-22T00:05:41.760Z,7.50
2023-03-22T00:08:13.673Z,6.93
2023-03-22T00:10:47.755Z,7.87
2023-03-22T00:13:19.145Z,7.50
2023-03-22T00:15:50.651Z,6.67
2023-03-22T00:18:21.936Z,6.33
2023-03-22T00:20:55.277Z,7.20
2023-03-22T00:23:28.276Z,6.77
2023-03-22T00:25:59.821Z,7.63
2023-03-22T00:28:31.285Z,6.80
2023-03-22T00:31:04.810Z,7.10
2023-03-22T00:33:37.117Z,6.93
2023-03-22T00:36:11.602Z,7.20
2023-03-22T00:38:44.230Z,7.67
2023-03-22T00:41:17.787Z,6.90
2023-03-22T00:43:50.711Z,7.23
2023-03-22T00:46:22.445Z,8.07
2023-03-22T00:48:54.072Z,8.17
2023-03-22T00:51:25.397Z,7.40
2023-03-22T00:53:56.781Z,7.60
2023-03-22T00:56:28.781Z,7.23
2023-03-22T00:59:00.293Z,7.30
2023-03-22T01:01:32.043Z,7.30
2023-03-22T01:04:05.051Z,7.20
2023-03-22T01:06:36.356Z,7.60
2023-03-22T01:09:07.634Z,7.70
2023-03-22T01:11:38.958Z,7.17
2023-03-22T01:14:10.434Z,7.33
2023-03-22T01:16:41.854Z,8.50
2023-03-22T01:19:13.360Z,7.50
2023-03-22T01:21:44.643Z,9.13
2023-03-22T01:24:16.682Z,7.70
2023-03-22T01:26:48.450Z,8.40
2023-03-22T01:29:20.416Z,8.40
2023-03-22T01:31:52.770Z,7.70
2023-03-22T01:34:24.264Z,6.90
2023-03-22T01:36:55.826Z,8.27
2023-03-22T01:39:27.487Z,7.33
2023-03-22T01:41:59.122Z,8.17
2023-03-22T01:44:31.455Z,7.40
2023-03-22T01:47:02.920Z,8.43
2023-03-22T01:49:35.664Z,7.47
2023-03-22T01:52:14.142Z,7.67
2023-03-22T01:54:50.442Z,7.77
2023-03-22T01:57:22.179Z,7.73
2023-03-22T01:59:53.534Z,7.47
2023-03-22T02:02:25.400Z,6.60
2023-03-22T02:04:57.969Z,7.57
2023-03-22T02:07:31.690Z,8.00
2023-03-22T02:10:03.594Z,6.70
2023-03-22T02:13:15.352Z,7.23
2023-03-22T02:16:00.861Z,6.33
2023-03-22T02:18:57.049Z,7.43
2023-03-22T02:22:06.512Z,6.73
2023-03-22T02:24:58.591Z,6.37
2023-03-22T02:27:46.916Z,6.47
2023-03-22T02:30:53.194Z,6.77
2023-03-22T02:33:49.262Z,6.87
2023-03-22T02:36:48.385Z,6.77
2023-03-22T02:39:30.810Z,6.67
2023-03-22T02:42:23.863Z,6.67
2023-03-22T02:45:22.013Z,6.87
2023-03-22T02:48:07.216Z,6.90
2023-03-22T02:50:48.995Z,6.73
2023-03-22T02:53:45.275Z,7.53
2023-03-22T02:56:25.733Z,7.07
2023-03-22T02:59:04.267Z,7.07
2023-03-22T03:01:40.864Z,6.23
2023-03-22T03:04:26.761Z,6.70
2023-03-22T03:07:05.671Z,6.80
2023-03-22T03:09:40.408Z,7.23
2023-03-22T03:12:18.990Z,6.87
2023-03-22T03:14:50.649Z,7.00
2023-03-22T03:17:28.202Z,7.60
2023-03-22T03:20:32.092Z,7.23
2023-03-22T03:23:24.468Z,6.50
2023-03-22T03:26:13.540Z,6.70
2023-03-22T03:29:09.782Z,6.53
2023-03-22T03:31:56.118Z,6.40
2023-03-22T03:34:39.768Z,7.38
2023-03-22T03:37:19.032Z,6.47
2023-03-22T03:39:56.022Z,6.93
2023-03-22T03:42:29.813Z,6.57
2023-03-22T03:45:01.820Z,6.17
2023-03-22T03:47:34.646Z,5.93
2023-03-22T03:50:07.547Z,6.17
2023-03-22T03:52:38.912Z,6.27
2023-03-22T03:55:10.535Z,6.00
2023-03-22T03:57:41.900Z,6.17
2023-03-22T04:00:17.182Z,5.97
2023-03-22T04:02:48.483Z,6.63
2023-03-22T04:05:19.818Z,5.73
2023-03-22T04:07:51.159Z,6.37
2023-03-22T04:10:22.559Z,5.20
2023-03-22T04:12:53.867Z,6.33
2023-03-22T04:15:25.185Z,6.07
2023-03-22T04:17:56.703Z,5.90
2023-03-22T04:20:29.750Z,5.30
2023-03-22T04:23:01.114Z,6.00
2023-03-22T04:25:33.854Z,6.23
2023-03-22T04:28:05.531Z,5.33
2023-03-22T04:30:37.110Z,5.70
2023-03-22T04:33:08.667Z,5.50
2023-03-22T04:35:39.939Z,5.63
2023-03-22T04:38:11.995Z,5.33
2023-03-22T04:40:46.591Z,5.43
2023-03-22T04:43:19.140Z,6.37
2023-03-22T04:45:50.617Z,6.10
2023-03-22T04:48:23.662Z,6.60
2023-03-22T04:50:55.466Z,6.00
2023-03-22T04:53:27.553Z,5.40
2023-03-22T04:55:59.381Z,6.50
2023-03-22T04:58:30.891Z,5.47
2023-03-22T05:01:03.376Z,5.63
2023-03-22T05:03:36.600Z,6.07
2023-03-22T05:06:09.113Z,6.00
2023-03-22T05:08:40.554Z,5.77
2023-03-22T05:11:14.833Z,5.77
2023-03-22T05:13:46.204Z,6.30
2023-03-22T05:16:17.625Z,5.90
2023-03-22T05:18:49.856Z,5.60
2023-03-22T05:21:28.356Z,5.77
2023-03-22T05:23:59.702Z,5.67
2023-03-22T05:26:31.005Z,5.40
2023-03-22T05:29:02.321Z,5.53
2023-03-22T05:31:34.515Z,6.17
2023-03-22T05:34:05.877Z,6.37
2023-03-22T05:36:37.283Z,5.67
2023-03-22T05:39:09.166Z,5.33
2023-03-22T05:41:40.589Z,6.13
2023-03-22T05:44:11.949Z,5.63
2023-03-22T05:46:43.358Z,5.23
2023-03-22T05:49:14.703Z,5.53
2023-03-22T05:51:47.020Z,5.73
2023-03-22T05:54:18.488Z,6.53
2023-03-22T05:56:49.784Z,5.67
2023-03-22T05:59:21.499Z,6.50
2023-03-22T06:01:52.850Z,6.30
2023-03-22T06:04:24.160Z,5.27
2023-03-22T06:06:55.518Z,5.27
2023-03-22T06:09:26.990Z,5.30
2023-03-22T06:11:58.781Z,6.73
2023-03-22T06:14:30.350Z,5.60
2023-03-22T06:17:01.982Z,5.50
2023-03-22T06:19:33.332Z,5.70
2023-03-22T06:22:04.651Z,5.50
2023-03-22T06:24:36.400Z,5.60
2023-03-22T06:27:09.129Z,5.43
2023-03-22T06:29:40.467Z,5.37
2023-03-22T06:32:11.868Z,5.07
2023-03-22T06:34:43.945Z,5.57
2023-03-22T06:37:16.306Z,5.07
2023-03-22T06:39:47.798Z,5.73
2023-03-22T06:42:19.179Z,4.60
2023-03-22T06:44:50.488Z,4.93
2023-03-22T06:47:21.778Z,4.90
2023-03-22T06:49:53.467Z,4.80
2023-03-22T06:52:24.832Z,5.07
2023-03-22T06:54:56.883Z,5.50
2023-03-22T06:57:28.346Z,5.00
2023-03-22T07:00:00.007Z,5.87
2023-03-22T07:02:31.388Z,5.40
2023-03-22T07:05:02.740Z,4.87
2023-03-22T07:07:34.035Z,5.40
2023-03-22T07:10:07.828Z,5.30
2023-03-22T07:12:39.196Z,5.60
2023-03-22T07:15:11.018Z,5.60
2023-03-22T07:17:42.282Z,5.43
2023-03-22T07:20:13.665Z,6.20
2023-03-22T07:22:45.869Z,6.27
2023-03-22T07:25:17.351Z,5.70
2023-03-22T07:27:48.677Z,6.43
2023-03-22T07:30:20.059Z,6.67
2023-03-22T07:32:51.460Z,5.57
2023-03-22T07:35:24.558Z,6.20
2023-03-22T07:37:58.473Z,6.10
2023-03-22T07:40:30.432Z,7.20
2023-03-22T07:43:01.709Z,6.33
2023-03-22T07:45:33.105Z,6.23
2023-03-22T07:48:04.593Z,5.80
2023-03-22T07:50:35.990Z,7.13
2023-03-22T07:53:07.343Z,6.60
2023-03-22T07:55:39.881Z,6.13
2023-03-22T07:58:11.241Z,6.53
2023-03-22T08:00:42.555Z,6.97
2023-03-22T08:03:13.916Z,6.13
2023-03-22T08:05:45.564Z,6.83
2023-03-22T08:08:17.268Z,6.70
2023-03-22T08:10:50.253Z,6.40
2023-03-22T08:13:21.621Z,6.53
2023-03-22T08:15:53.011Z,6.30
2023-03-22T08:18:24.651Z,6.90
2023-03-22T08:20:58.129Z,5.77
2023-03-22T08:23:40.961Z,6.37
2023-03-22T08:26:15.956Z,5.97
2023-03-22T08:28:47.275Z,6.43
2023-03-22T08:31:20.053Z,5.73
2023-03-22T08:33:51.961Z,5.97
2023-03-22T08:36:23.705Z,6.37
2023-03-22T08:38:55.094Z,6.53
2023-03-22T08:41:26.404Z,5.40
2023-03-22T08:43:58.124Z,6.13
2023-03-22T08:46:29.535Z,5.93
2023-03-22T08:49:02.292Z,5.87
2023-03-22T08:51:33.647Z,5.70
2023-03-22T08:54:05.285Z,5.00
2023-03-22T08:56:38.048Z,5.67
2023-03-22T08:59:09.772Z,4.97
2023-03-22T09:01:41.296Z,5.27
2023-03-22T09:04:12.773Z,5.87
2023-03-22T09:06:45.390Z,5.43
2023-03-22T09:09:16.718Z,4.37
2023-03-22T09:11:47.999Z,4.23
2023-03-22T09:14:19.314Z,4.90
2023-03-22T09:16:51.666Z,5.10
2023-03-22T09:19:23.048Z,4.20
2023-03-22T09:21:54.459Z,4.20
2023-03-22T09:24:25.754Z,3.70
2023-03-22T09:26:58.528Z,3.70
2023-03-22T09:29:29.840Z,4.07
2023-03-22T09:32:01.273Z,3.90
2023-03-22T09:34:32.681Z,3.80
2023-03-22T09:37:04.248Z,3.43
2023-03-22T09:39:38.357Z,3.83
2023-03-22T09:42:31.365Z,3.27
2023-03-22T09:45:06.721Z,3.10
2023-03-22T09:47:45.819Z,3.90
2023-03-22T09:50:31.122Z,2.80
2023-03-22T09:53:02.407Z,2.83
2023-03-22T09:55:39.651Z,2.17
2023-03-22T09:58:21.975Z,2.35
2023-03-22T10:01:21.275Z,2.40
2023-03-22T10:04:09.359Z,2.58
2023-03-22T10:06:46.537Z,2.10
2023-03-22T10:09:41.435Z,2.30
2023-03-22T10:12:24.791Z,2.70
2023-03-22T10:15:05.578Z,2.22
2023-03-22T10:17:39.681Z,3.25
2023-03-22T10:20:27.583Z,2.03
2023-03-22T10:23:02.789Z,1.98
2023-03-22T10:25:38.347Z,2.53
2023-03-22T10:28:24.836Z,1.95
2023-03-22T10:33:39.196Z,2.38
2023-03-22T10:36:14.741Z,1.88
2023-03-22T10:38:50.375Z,1.52
2023-03-22T10:41:24.597Z,1.23
2023-03-22T10:44:00.430Z,1.85
2023-03-22T10:46:39.151Z,2.53
2023-03-22T10:49:23.009Z,1.92
2023-03-22T10:51:57.964Z,1.80
2023-03-22T10:54:30.257Z,1.98
2023-03-22T10:57:01.619Z,2.15
2023-03-22T10:59:47.234Z,1.80
2023-03-22T11:02:24.843Z,2.15
2023-03-22T11:05:03.541Z,1.73
2023-03-22T11:07:42.740Z,2.03
2023-03-22T11:10:23.316Z,1.83
2023-03-22T11:13:06.704Z,2.08
2023-03-22T11:15:51.450Z,2.60
2023-03-22T11:18:24.811Z,1.80
2023-03-22T11:21:04.591Z,1.90
2023-03-22T11:23:38.610Z,1.88
2023-03-22T11:26:12.986Z,1.80
2023-03-22T11:28:50.710Z,2.00
2023-03-22T11:31:22.129Z,2.22
2023-03-22T11:33:59.564Z,2.90
2023-03-22T11:36:31.000Z,2.65
2023-03-22T11:39:08.027Z,2.60
2023-03-22T11:41:40.616Z,2.75
2023-03-22T11:44:15.799Z,2.88
2023-03-22T11:47:00.799Z,2.60
2023-03-22T11:49:48.708Z,2.70
2023-03-22T11:52:27.415Z,2.58
2023-03-22T11:55:00.875Z,2.58
2023-03-22T11:57:34.409Z,2.90
2023-03-22T12:00:21.377Z,2.40
2023-03-22T12:03:01.355Z,3.00
2023-03-22T12:05:37.108Z,3.08
2023-03-22T12:08:18.837Z,3.38
2023-03-22T12:10:55.733Z,2.88
2023-03-22T12:13:37.486Z,3.25
2023-03-22T12:16:12.683Z,3.40
2023-03-22T12:19:13.084Z,3.78
2023-03-22T12:21:46.831Z,3.67
2023-03-22T12:24:32.047Z,3.97
2023-03-22T12:27:20.710Z,4.65
2023-03-22T12:29:58.952Z,3.78
2023-03-22T12:32:45.140Z,4.18
2023-03-22T12:35:27.953Z,4.03
2023-03-22T12:38:07.770Z,4.18
2023-03-22T12:40:41.379Z,4.25
2023-03-22T12:43:38.002Z,3.83
2023-03-22T12:46:18.238Z,4.15
2023-03-22T12:48:55.850Z,4.50
2023-03-22T12:51:27.306Z,3.88
2023-03-22T12:54:00.304Z,4.68
2023-03-22T12:56:40.273Z,4.30
2023-03-22T12:59:22.573Z,5.07
2023-03-22T13:02:17.531Z,4.83
2023-03-22T13:04:57.617Z,4.43
2023-03-22T13:07:35.530Z,4.57
2023-03-22T13:10:29.586Z,4.87
2023-03-22T13:13:23.446Z,5.07
2023-03-22T13:16:10.912Z,5.20
2023-03-22T13:18:42.584Z,5.50
2023-03-22T13:21:26.799Z,5.17
2023-03-22T13:24:04.533Z,5.53
2023-03-22T13:26:51.587Z,5.77
2023-03-22T13:29:25.949Z,5.70
2023-03-22T13:32:00.333Z,5.83
2023-03-22T13:34:48.257Z,5.33
2023-03-22T13:37:36.998Z,5.90
2023-03-22T13:40:36.317Z,5.27
2023-03-22T13:43:19.658Z,5.93
2023-03-22T13:46:17.421Z,5.03
2023-03-22T13:48:49.740Z,5.77
2023-03-22T13:51:27.946Z,5.87
2023-03-22T13:54:16.281Z,5.07
2023-03-22T13:56:56.840Z,6.17
2023-03-22T13:59:29.631Z,5.70
2023-03-22T14:02:16.285Z,5.13
2023-03-22T14:04:55.921Z,6.60
2023-03-22T14:07:33.525Z,5.37
2023-03-22T14:10:12.770Z,5.23
2023-03-22T14:12:46.902Z,5.13
2023-03-22T14:15:41.147Z,6.00
2023-03-22T14:18:17.867Z,5.07
2023-03-22T14:20:54.947Z,5.53
